Time;durP1;ratioP1;P1;durP2;ratioP2;P2;SDS_P1;SDS_P2;PMS_P1;PMS_P2;Temp;Humidity;BMP_temperature;BMP_pressure;BME280_temperature;BME280_humidity;BME280_pressure;Samples;Min_cycle;Max_cycle;Signal;HPM_P1;HPM_P2
2021/12/08 00:01:12;;;;;;;4.33;2.70;;;;;;;1.75;100.00;96727.13;5106626;28;20586;-68
2021/12/08 00:03:40;;;;;;;4.97;3.27;;;;;;;1.78;100.00;96719.13;5103497;28;20214;-68
2021/12/08 00:06:09;;;;;;;4.60;3.10;;;;;;;1.81;100.00;96713.75;5104425;28;20228;-68
2021/12/08 00:08:37;;;;;;;3.90;2.77;;;;;;;1.93;100.00;96715.66;5106491;28;20226;-68
2021/12/08 00:13:48;;;;;;;5.03;3.23;;;;;;;1.86;100.00;96724.75;5101711;28;20213;-68
2021/12/08 00:16:15;;;;;;;3.03;2.37;;;;;;;1.86;100.00;96716.09;5103075;28;20211;-68
2021/12/08 00:18:47;;;;;;;3.83;2.83;;;;;;;1.91;100.00;96708.88;5106284;28;20210;-68
2021/12/08 00:21:15;;;;;;;2.93;2.50;;;;;;;1.95;100.00;96705.13;5104451;28;20579;-68
2021/12/08 00:23:42;;;;;;;4.53;2.63;;;;;;;1.99;100.00;96702.28;5102664;28;20247;-68
2021/12/08 00:26:09;;;;;;;3.53;2.40;;;;;;;1.93;100.00;96702.66;5103487;28;20214;-68
2021/12/08 00:28:36;;;;;;;3.17;2.57;;;;;;;1.92;100.00;96708.78;5106541;28;20205;-68
2021/12/08 00:31:05;;;;;;;3.07;2.23;;;;;;;1.98;100.00;96689.34;5104319;28;20242;-68
2021/12/08 00:33:33;;;;;;;4.67;2.40;;;;;;;1.90;100.00;96692.38;5105879;28;20218;-68
2021/12/08 00:36:02;;;;;;;5.60;2.43;;;;;;;1.83;100.00;96700.66;5106052;28;20219;-68
2021/12/08 00:38:29;;;;;;;3.67;2.70;;;;;;;1.80;100.00;96708.63;5104210;28;20743;-68
2021/12/08 00:40:56;;;;;;;3.07;2.57;;;;;;;1.83;100.00;96711.91;5103828;28;20214;-67
2021/12/08 00:43:24;;;;;;;2.70;2.07;;;;;;;1.86;100.00;96711.75;5102376;28;20225;-67
2021/12/08 00:45:50;;;;;;;3.63;2.63;;;;;;;1.89;100.00;96701.13;5103248;28;20215;-67
2021/12/08 00:48:17;;;;;;;3.10;2.00;;;;;;;1.89;100.00;96695.91;5106099;28;20584;-67
2021/12/08 00:50:44;;;;;;;3.83;2.13;;;;;;;1.88;100.00;96689.03;5103814;28;20229;-67
2021/12/08 00:53:13;;;;;;;3.80;2.30;;;;;;;1.93;100.00;96681.81;5101952;28;20211;-67
2021/12/08 00:55:40;;;;;;;4.80;2.20;;;;;;;1.93;100.00;96670.53;5103195;28;20585;-67
2021/12/08 00:58:07;;;;;;;3.17;2.10;;;;;;;1.91;100.00;96668.00;5105531;28;20694;-67
2021/12/08 01:00:37;;;;;;;3.37;2.33;;;;;;;1.90;100.00;96670.72;5103601;28;20210;-67
2021/12/08 01:03:05;;;;;;;3.63;2.20;;;;;;;1.84;100.00;96666.69;5100254;28;20219;-67
2021/12/08 01:05:34;;;;;;;4.63;2.30;;;;;;;1.72;100.00;96670.00;5108789;28;20206;-66
2021/12/08 01:08:01;;;;;;;3.13;2.33;;;;;;;1.70;100.00;96669.25;5109933;28;20220;-66
2021/12/08 01:10:30;;;;;;;4.10;2.10;;;;;;;1.76;100.00;96683.69;5102435;28;20253;-66
2021/12/08 01:12:57;;;;;;;3.57;2.10;;;;;;;1.79;100.00;96689.56;5101884;28;20248;-66
2021/12/08 01:15:26;;;;;;;3.13;2.27;;;;;;;1.74;100.00;96685.56;5103637;28;20215;-66
2021/12/08 01:17:52;;;;;;;4.17;2.43;;;;;;;1.67;100.00;96699.84;5105476;28;20557;-65
2021/12/08 01:20:19;;;;;;;4.77;2.40;;;;;;;1.65;100.00;96697.31;5102168;28;20557;-65
2021/12/08 01:22:46;;;;;;;4.07;3.30;;;;;;;1.62;100.00;96697.50;5101283;28;20211;-65
2021/12/08 01:25:13;;;;;;;4.33;3.20;;;;;;;1.64;100.00;96685.25;5103183;28;20663;-65
2021/12/08 01:27:41;;;;;;;5.53;3.60;;;;;;;1.68;100.00;96702.38;5104909;28;20209;-64
2021/12/08 01:30:09;;;;;;;5.83;3.60;;;;;;;1.64;100.00;96706.06;5100769;28;20632;-65
2021/12/08 01:32:36;;;;;;;4.47;3.57;;;;;;;1.69;100.00;96704.03;5101358;28;20223;-65
2021/12/08 01:35:04;;;;;;;4.40;2.70;;;;;;;1.70;100.00;96712.69;5102825;28;20210;-65
2021/12/08 01:37:31;;;;;;;4.77;2.30;;;;;;;1.63;100.00;96709.59;5104987;28;20217;-65
2021/12/08 01:39:59;;;;;;;2.73;2.47;;;;;;;1.43;100.00;96707.28;5101850;28;20301;-65
2021/12/08 01:42:30;;;;;;;3.43;2.23;;;;;;;1.30;100.00;96711.47;5100873;28;20684;-65
2021/12/08 01:47:42;;;;;;;3.13;2.30;;;;;;;1.42;100.00;96678.72;5102927;28;20216;-65
2021/12/08 01:50:10;;;;;;;2.70;2.20;;;;;;;1.46;100.00;96669.81;5105106;28;20265;-65
2021/12/08 01:52:37;;;;;;;4.33;2.43;;;;;;;1.50;100.00;96671.31;5101663;28;20225;-65
2021/12/08 01:55:04;;;;;;;2.53;2.00;;;;;;;1.57;100.00;96668.28;5102876;28;20223;-65
2021/12/08 01:57:31;;;;;;;2.40;1.90;;;;;;;1.61;100.00;96664.56;5102980;28;20210;-65
2021/12/08 01:59:59;;;;;;;3.17;2.20;;;;;;;1.62;100.00;96668.88;5102233;28;20594;-65
2021/12/08 02:02:25;;;;;;;2.40;1.93;;;;;;;1.62;100.00;96670.63;5104093;28;20219;-65
2021/12/08 02:04:52;;;;;;;5.67;2.67;;;;;;;1.64;100.00;96674.81;5103078;28;20203;-64
2021/12/08 02:07:18;;;;;;;4.53;2.53;;;;;;;1.61;100.00;96668.94;5111038;28;20215;-64
2021/12/08 02:09:45;;;;;;;2.97;2.30;;;;;;;1.61;100.00;96674.97;5108523;28;20587;-64
2021/12/08 02:12:11;;;;;;;3.83;2.63;;;;;;;1.60;100.00;96673.31;5102269;28;20235;-64
2021/12/08 02:14:39;;;;;;;3.10;2.80;;;;;;;1.63;100.00;96685.31;5102636;28;20225;-64
2021/12/08 02:17:10;;;;;;;4.00;3.00;;;;;;;1.65;100.00;96681.69;5103111;28;20317;-64
2021/12/08 02:19:37;;;;;;;5.10;3.00;;;;;;;1.66;100.00;96678.16;5106628;28;20301;-64
2021/12/08 02:22:05;;;;;;;4.40;2.77;;;;;;;1.72;100.00;96679.59;5104530;28;20210;-64
2021/12/08 02:24:32;;;;;;;4.20;2.60;;;;;;;1.72;100.00;96677.81;5102304;28;20211;-64
2021/12/08 02:26:59;;;;;;;4.00;3.23;;;;;;;1.76;100.00;96678.47;5103274;28;20669;-64
2021/12/08 02:29:36;;;;;;;3.97;3.00;;;;;;;1.74;100.00;96675.13;5106261;28;20214;-64
2021/12/08 02:32:10;;;;;;;4.23;2.90;;;;;;;1.75;100.00;96669.84;5104537;28;20237;-64
2021/12/08 02:48:39;;;;;;;2.63;2.33;;;;;;;1.80;100.00;96672.19;5039226;28;20230;-64
2021/12/08 02:51:06;;;;;;;3.10;2.60;;;;;;;1.76;100.00;96668.91;5090550;28;20230;-64
2021/12/08 02:53:34;;;;;;;2.97;2.40;;;;;;;1.79;100.00;96668.72;5105829;28;20225;-64
2021/12/08 02:56:01;;;;;;;3.47;2.67;;;;;;;1.84;100.00;96666.69;5102313;28;20210;-64
2021/12/08 02:58:27;;;;;;;3.97;2.60;;;;;;;1.79;100.00;96670.50;5103184;28;20660;-64
2021/12/08 03:00:58;;;;;;;3.27;2.77;;;;;;;1.84;100.00;96651.06;5105685;28;20662;-64
2021/12/08 03:03:24;;;;;;;2.40;2.20;;;;;;;1.82;100.00;96652.06;5105683;28;20225;-64
2021/12/08 03:05:51;;;;;;;3.00;2.30;;;;;;;1.76;100.00;96662.84;5105776;28;20226;-64
2021/12/08 03:08:18;;;;;;;3.37;2.40;;;;;;;1.79;100.00;96645.28;5109417;28;20221;-63
2021/12/08 03:10:51;;;;;;;3.90;2.80;;;;;;;1.81;100.00;96646.06;5099864;28;20234;-63
2021/12/08 03:13:17;;;;;;;3.77;2.30;;;;;;;1.79;100.00;96647.88;5099414;28;20266;-63
2021/12/08 03:15:44;;;;;;;2.93;2.20;;;;;;;1.82;100.00;96652.94;5103477;28;20679;-63
2021/12/08 03:18:11;;;;;;;3.00;2.60;;;;;;;1.85;100.00;96652.72;5101816;28;20205;-63
2021/12/08 03:20:40;;;;;;;3.70;2.50;;;;;;;1.92;100.00;96648.88;5099666;28;20222;-63
2021/12/08 03:23:08;;;;;;;3.77;2.40;;;;;;;1.83;100.00;96657.22;5100487;28;20253;-63
2021/12/08 03:25:39;;;;;;;4.33;2.60;;;;;;;1.80;100.00;96644.38;5103813;28;20214;-63
2021/12/08 03:28:13;;;;;;;3.13;2.70;;;;;;;1.82;100.00;96652.06;5101410;28;20210;-63
2021/12/08 03:30:53;;;;;;;2.77;2.30;;;;;;;1.82;100.00;96658.13;5099643;28;20238;-63
2021/12/08 03:33:19;;;;;;;2.80;2.40;;;;;;;1.81;100.00;96651.25;5101876;28;20592;-63
2021/12/08 03:35:46;;;;;;;3.90;2.20;;;;;;;1.82;100.00;96662.50;5102544;28;20224;-63
2021/12/08 03:38:12;;;;;;;3.27;2.27;;;;;;;1.89;100.00;96649.03;5105688;28;20214;-63
2021/12/08 03:40:39;;;;;;;3.63;2.40;;;;;;;1.93;100.00;96650.53;5103900;28;20221;-63
2021/12/08 03:43:07;;;;;;;3.47;2.60;;;;;;;1.91;100.00;96654.16;5101696;28;20215;-63
2021/12/08 03:45:39;;;;;;;3.83;2.70;;;;;;;1.91;100.00;96662.78;5101884;28;20302;-63
2021/12/08 03:48:10;;;;;;;2.93;2.63;;;;;;;1.95;100.00;96647.81;5106242;28;20214;-62
2021/12/08 03:50:39;;;;;;;2.83;2.60;;;;;;;1.96;100.00;96644.31;5108462;28;20686;-63
2021/12/08 03:53:07;;;;;;;3.70;2.80;;;;;;;1.99;100.00;96639.75;5105375;28;20211;-63
2021/12/08 03:55:34;;;;;;;3.33;2.97;;;;;;;2.08;100.00;96633.19;5106895;28;20686;-63
2021/12/08 03:58:01;;;;;;;4.47;2.83;;;;;;;2.03;100.00;96640.41;5108709;28;20220;-63
2021/12/08 04:00:30;;;;;;;3.70;2.70;;;;;;;2.05;100.00;96639.41;5108117;28;20219;-63
2021/12/08 04:02:57;;;;;;;3.07;2.50;;;;;;;2.02;100.00;96639.56;5105205;28;20215;-63
2021/12/08 04:05:39;;;;;;;3.90;2.63;;;;;;;2.06;100.00;96642.81;5108447;28;20685;-63
2021/12/08 04:08:14;;;;;;;2.73;2.50;;;;;;;2.12;100.00;96630.28;5111260;28;20221;-63
2021/12/08 04:10:41;;;;;;;4.07;2.70;;;;;;;2.11;100.00;96631.22;5104281;28;20242;-63
2021/12/08 04:13:08;;;;;;;3.10;2.80;;;;;;;2.18;100.00;96640.34;5105392;28;20214;-63
2021/12/08 04:15:36;;;;;;;3.23;2.93;;;;;;;2.17;100.00;96635.22;5108563;28;20218;-63
2021/12/08 04:18:02;;;;;;;3.40;2.83;;;;;;;2.21;100.00;96634.13;5108709;28;20683;-62
2021/12/08 04:20:32;;;;;;;4.20;2.60;;;;;;;2.24;100.00;96639.13;5099200;28;20214;-63
2021/12/08 04:23:00;;;;;;;3.10;2.70;;;;;;;2.29;100.00;96640.53;5105582;28;20208;-63
2021/12/08 04:25:32;;;;;;;3.57;3.00;;;;;;;2.36;100.00;96651.41;5102671;28;20233;-63
2021/12/08 04:28:01;;;;;;;3.93;3.00;;;;;;;2.39;100.00;96649.47;5103275;28;20235;-64
2021/12/08 04:30:34;;;;;;;4.80;2.90;;;;;;;2.43;100.00;96655.31;5105675;28;20213;-63
2021/12/08 04:33:03;;;;;;;3.23;2.90;;;;;;;2.46;100.00;96657.75;5103149;28;20206;-63
2021/12/08 04:35:29;;;;;;;4.70;2.93;;;;;;;2.54;100.00;96643.34;5102634;28;20222;-62
2021/12/08 04:38:09;;;;;;;5.00;3.20;;;;;;;2.60;100.00;96642.97;5104201;28;20218;-63
2021/12/08 04:40:50;;;;;;;3.70;3.07;;;;;;;2.59;100.00;96651.72;5106037;28;20368;-62
2021/12/08 04:43:24;;;;;;;3.63;3.27;;;;;;;2.61;100.00;96644.63;5102740;28;20219;-62
2021/12/08 04:46:02;;;;;;;4.60;3.60;;;;;;;2.61;100.00;96652.44;5104510;28;20297;-62
2021/12/08 04:48:49;;;;;;;5.47;3.63;;;;;;;2.67;100.00;96649.47;5105331;28;20689;-62
2021/12/08 04:51:37;;;;;;;5.80;3.90;;;;;;;2.70;100.00;96649.25;5101809;28;20238;-62
2021/12/08 05:02:32;;;;;;;5.43;4.40;;;;;;;2.82;100.00;96637.25;5105204;28;20255;-62
2021/12/08 05:05:13;;;;;;;5.87;4.80;;;;;;;2.86;100.00;96631.75;5105710;28;20213;-62
2021/12/08 05:07:50;;;;;;;5.30;4.73;;;;;;;2.86;100.00;96621.31;5107607;28;20289;-62
2021/12/08 05:10:20;;;;;;;6.13;4.97;;;;;;;2.86;100.00;96631.75;5103935;28;20279;-62
2021/12/08 05:12:50;;;;;;;6.47;5.50;;;;;;;2.87;100.00;96636.03;5101735;28;20253;-62
2021/12/08 05:15:22;;;;;;;6.20;5.20;;;;;;;2.91;100.00;96637.50;5103031;28;20211;-62
2021/12/08 05:17:51;;;;;;;6.43;5.07;;;;;;;2.92;100.00;96644.41;5105502;28;20214;-62
2021/12/08 05:20:23;;;;;;;6.67;4.93;;;;;;;2.96;100.00;96639.84;5102246;28;20244;-62
2021/12/08 05:22:56;;;;;;;7.83;5.70;;;;;;;2.95;100.00;96644.19;5099617;28;20699;-62
2021/12/08 05:25:26;;;;;;;7.73;5.87;;;;;;;2.97;100.00;96647.56;5105386;28;20225;-62
2021/12/08 05:27:55;;;;;;;6.50;5.60;;;;;;;3.00;100.00;96657.81;5104231;28;20209;-62
2021/12/08 05:30:28;;;;;;;8.47;6.43;;;;;;;3.04;100.00;96659.28;5101207;28;20222;-63
2021/12/08 05:32:55;;;;;;;9.10;6.23;;;;;;;3.06;100.00;96653.97;5102248;28;20292;-62
2021/12/08 05:35:24;;;;;;;7.87;6.07;;;;;;;3.06;100.00;96665.25;5109561;28;20222;-63
2021/12/08 05:37:51;;;;;;;8.37;6.10;;;;;;;3.09;100.00;96657.25;5105384;28;20214;-62
2021/12/08 05:40:23;;;;;;;9.43;6.63;;;;;;;3.07;100.00;96653.88;5107152;28;20214;-63
2021/12/08 05:42:50;;;;;;;8.20;6.07;;;;;;;3.10;100.00;96658.91;5105260;28;20585;-63
2021/12/08 05:45:20;;;;;;;8.27;6.23;;;;;;;3.10;100.00;96664.13;5103206;28;20211;-62
2021/12/08 05:47:50;;;;;;;8.53;5.93;;;;;;;3.14;100.00;96656.94;5105755;28;20214;-63
2021/12/08 05:50:21;;;;;;;10.97;7.37;;;;;;;3.17;100.00;96659.38;5105291;28;20225;-63
2021/12/08 05:52:51;;;;;;;8.97;6.10;;;;;;;3.18;100.00;96656.63;5103789;28;20230;-63
2021/12/08 05:55:18;;;;;;;7.17;6.30;;;;;;;3.20;100.00;96660.00;5102729;28;20220;-63
2021/12/08 05:57:44;;;;;;;8.80;5.83;;;;;;;3.22;100.00;96658.13;5100970;28;20222;-64
2021/12/08 06:00:16;;;;;;;8.10;6.17;;;;;;;3.20;100.00;96654.78;5100852;28;20263;-63
2021/12/08 06:02:44;;;;;;;7.67;5.93;;;;;;;3.19;100.00;96645.25;5104132;28;20712;-63
2021/12/08 06:05:11;;;;;;;7.40;5.67;;;;;;;3.18;100.00;96635.75;5099272;28;20673;-63
2021/12/08 06:07:38;;;;;;;7.13;6.00;;;;;;;3.19;100.00;96632.22;5109522;28;20290;-63
2021/12/08 06:10:14;;;;;;;7.97;5.87;;;;;;;3.18;100.00;96650.59;5100368;28;20226;-63
2021/12/08 06:12:41;;;;;;;8.23;6.53;;;;;;;3.20;100.00;96653.94;5101734;28;20291;-63
2021/12/08 06:15:09;;;;;;;9.70;7.60;;;;;;;3.23;100.00;96638.91;5101824;28;20222;-63
2021/12/08 06:17:36;;;;;;;8.50;6.90;;;;;;;3.24;100.00;96624.09;5106545;28;20211;-64
2021/12/08 06:20:05;;;;;;;8.83;6.73;;;;;;;3.26;100.00;96623.06;5105818;28;20218;-63
2021/12/08 06:22:32;;;;;;;7.37;6.33;;;;;;;3.22;100.00;96625.97;5102503;28;20219;-63
2021/12/08 06:24:58;;;;;;;8.03;6.40;;;;;;;3.12;100.00;96624.88;5103592;28;20703;-63
2021/12/08 06:27:27;;;;;;;9.30;6.67;;;;;;;3.10;100.00;96617.16;5106407;28;20220;-63
2021/12/08 06:29:54;;;;;;;9.83;7.37;;;;;;;3.12;100.00;96614.44;5105727;28;20214;-63
2021/12/08 06:32:21;;;;;;;10.87;7.77;;;;;;;3.17;100.00;96587.09;5102383;28;20238;-63
2021/12/08 06:34:50;;;;;;;11.30;6.80;;;;;;;3.20;100.00;96602.59;5103787;28;20217;-63
2021/12/08 06:37:22;;;;;;;9.20;6.90;;;;;;;3.24;100.00;96592.78;5106262;28;20222;-63
2021/12/08 06:39:52;;;;;;;8.20;6.63;;;;;;;3.20;100.00;96591.28;5105017;28;20218;-64
2021/12/08 06:42:26;;;;;;;11.23;7.17;;;;;;;3.24;100.00;96598.81;5100741;28;20211;-63
2021/12/08 06:44:55;;;;;;;8.37;6.87;;;;;;;3.24;100.00;96593.59;5105638;28;20214;-64
2021/12/08 06:47:25;;;;;;;8.83;6.53;;;;;;;3.27;100.00;96596.03;5105928;28;20218;-63
2021/12/08 06:49:56;;;;;;;7.70;6.30;;;;;;;3.27;100.00;96593.41;5106687;28;20225;-64
2021/12/08 06:52:26;;;;;;;7.83;6.03;;;;;;;3.30;100.00;96597.59;5102373;28;20238;-64
2021/12/08 06:54:57;;;;;;;9.27;6.53;;;;;;;3.32;100.00;96600.94;5105985;28;20220;-64
2021/12/08 06:57:27;;;;;;;8.13;5.77;;;;;;;3.36;100.00;96607.66;5105665;28;20208;-64
2021/12/08 06:59:59;;;;;;;8.10;6.37;;;;;;;3.36;100.00;96598.03;5102126;28;20215;-64
2021/12/08 07:02:53;;;;;;;9.57;6.53;;;;;;;3.34;100.00;96614.72;5104070;28;20214;-64
2021/12/08 07:05:29;;;;;;;9.17;6.87;;;;;;;3.31;100.00;96620.97;5100278;28;20219;-64
2021/12/08 07:07:59;;;;;;;8.67;7.27;;;;;;;3.28;100.00;96629.03;5102077;28;20209;-64
2021/12/08 07:10:29;;;;;;;11.20;7.87;;;;;;;3.21;100.00;96640.81;5100646;28;20214;-64
2021/12/08 07:12:59;;;;;;;11.80;8.90;;;;;;;3.23;100.00;96638.91;5100297;28;20246;-65
2021/12/08 07:15:31;;;;;;;10.50;8.37;;;;;;;3.28;100.00;96652.53;5103126;28;20559;-64
2021/12/08 07:18:01;;;;;;;13.10;8.77;;;;;;;3.25;100.00;96654.50;5103504;28;20210;-64
2021/12/08 07:20:42;;;;;;;13.03;8.80;;;;;;;3.28;100.00;96649.06;5100005;28;20600;-64
2021/12/08 07:23:10;;;;;;;12.67;9.10;;;;;;;3.29;100.00;96642.91;5103883;28;20260;-64
2021/12/08 07:25:37;;;;;;;12.77;9.13;;;;;;;3.31;100.00;96656.72;5107428;28;20702;-64
2021/12/08 07:28:05;;;;;;;12.87;9.40;;;;;;;3.35;100.00;96656.41;5104774;28;20210;-64
2021/12/08 07:30:36;;;;;;;12.00;8.90;;;;;;;3.38;100.00;96653.63;5103893;28;20289;-64
2021/12/08 07:33:04;;;;;;;15.07;9.27;;;;;;;3.43;100.00;96661.16;5104137;28;20253;-64
2021/12/08 07:35:35;;;;;;;12.57;9.20;;;;;;;3.44;100.00;96652.38;5107587;28;20562;-64
2021/12/08 07:38:02;;;;;;;12.07;9.40;;;;;;;3.44;100.00;96636.72;5103316;28;20301;-64
2021/12/08 07:40:33;;;;;;;13.07;9.17;;;;;;;3.45;100.00;96636.63;5103279;28;20218;-64
2021/12/08 07:43:03;;;;;;;12.53;9.00;;;;;;;3.44;100.00;96632.34;5106568;28;20707;-65
2021/12/08 07:45:38;;;;;;;15.33;9.70;;;;;;;3.39;100.00;96634.41;5106570;28;20220;-65
2021/12/08 07:48:07;;;;;;;12.50;9.13;;;;;;;3.41;100.00;96627.28;5103461;28;20210;-65
2021/12/08 07:50:38;;;;;;;13.87;9.20;;;;;;;3.45;100.00;96622.72;5103981;28;20212;-64
2021/12/08 07:53:07;;;;;;;12.93;8.93;;;;;;;3.44;100.00;96621.88;5106898;28;20236;-65
2021/12/08 07:55:39;;;;;;;11.80;8.83;;;;;;;3.47;100.00;96620.81;5104370;28;20223;-64
2021/12/08 07:58:07;;;;;;;10.40;8.47;;;;;;;3.52;100.00;96617.00;5103287;28;20223;-64
2021/12/08 08:00:39;;;;;;;12.17;8.53;;;;;;;3.47;100.00;96620.81;5103234;28;20218;-66
2021/12/08 08:03:06;;;;;;;12.90;7.47;;;;;;;3.41;100.00;96623.84;5106932;28;20206;-65
2021/12/08 08:05:34;;;;;;;10.80;8.03;;;;;;;3.42;100.00;96628.97;5109813;28;20207;-65
2021/12/08 08:08:05;;;;;;;10.37;8.03;;;;;;;3.42;100.00;96634.19;5111010;28;20213;-65
2021/12/08 08:10:35;;;;;;;11.73;7.87;;;;;;;3.45;100.00;96639.22;5105048;27;20222;-66
2021/12/08 08:13:07;;;;;;;10.07;7.47;;;;;;;3.46;100.00;96627.84;5105083;28;20355;-65
2021/12/08 08:15:39;;;;;;;11.70;8.37;;;;;;;3.48;100.00;96623.34;5108514;27;20216;-64
2021/12/08 08:18:09;;;;;;;13.47;9.00;;;;;;;3.49;100.00;96635.47;5107963;28;20214;-65
2021/12/08 08:20:39;;;;;;;12.47;9.40;;;;;;;3.56;100.00;96635.91;5104646;28;20668;-65
2021/12/08 08:23:07;;;;;;;11.37;8.53;;;;;;;3.58;100.00;96624.44;5107120;28;20211;-64
2021/12/08 08:25:38;;;;;;;12.33;8.70;;;;;;;3.59;100.00;96633.94;5106677;28;20219;-64
2021/12/08 08:28:05;;;;;;;11.40;8.53;;;;;;;3.63;100.00;96622.34;5106363;28;20209;-65
2021/12/08 08:30:37;;;;;;;12.27;9.20;;;;;;;3.66;100.00;96635.19;5104664;28;20596;-64
2021/12/08 08:33:05;;;;;;;10.57;8.93;;;;;;;3.71;100.00;96638.34;5108037;28;20231;-64
2021/12/08 08:35:36;;;;;;;10.20;7.93;;;;;;;3.75;100.00;96644.22;5107280;28;20221;-63
2021/12/08 08:38:08;;;;;;;12.00;9.53;;;;;;;3.81;100.00;96649.88;5104680;28;20215;-64
2021/12/08 08:40:40;;;;;;;10.70;7.73;;;;;;;3.87;100.00;96652.09;5105194;28;20241;-65
2021/12/08 08:43:10;;;;;;;10.77;7.83;;;;;;;3.88;100.00;96642.47;5108146;28;20214;-65
2021/12/08 08:45:44;;;;;;;10.37;7.80;;;;;;;3.91;100.00;96648.31;5104998;28;20215;-64
2021/12/08 08:48:15;;;;;;;8.60;7.23;;;;;;;3.93;100.00;96643.84;5102243;28;20215;-65
2021/12/08 08:50:44;;;;;;;9.87;8.00;;;;;;;3.96;100.00;96633.19;5105602;28;20206;-65
2021/12/08 08:53:11;;;;;;;9.97;8.53;;;;;;;3.91;100.00;96632.63;5106825;28;20238;-65
2021/12/08 08:55:43;;;;;;;9.87;7.77;;;;;;;3.98;100.00;96635.69;5099387;28;20207;-65
2021/12/08 08:58:11;;;;;;;10.87;8.40;;;;;;;4.04;100.00;96635.28;5112479;28;20585;-65
2021/12/08 09:00:43;;;;;;;9.43;8.10;;;;;;;4.08;100.00;96628.91;5110040;28;20220;-64
2021/12/08 09:03:13;;;;;;;10.63;7.97;;;;;;;4.13;100.00;96635.50;5110340;28;20683;-64
2021/12/08 09:05:44;;;;;;;10.23;7.83;;;;;;;4.16;100.00;96658.00;5101254;28;20207;-65
2021/12/08 09:08:12;;;;;;;9.30;7.73;;;;;;;4.18;100.00;96666.56;5103341;28;20223;-64
2021/12/08 09:10:43;;;;;;;8.80;7.23;;;;;;;4.23;100.00;96670.53;5102819;28;20222;-65
2021/12/08 09:13:13;;;;;;;10.10;8.17;;;;;;;4.27;100.00;96669.38;5110842;28;20237;-65
2021/12/08 09:15:45;;;;;;;10.70;7.50;;;;;;;4.33;100.00;96674.22;5111164;28;20218;-65
2021/12/08 09:18:16;;;;;;;10.13;7.97;;;;;;;4.36;100.00;96671.41;5103192;28;20566;-65
2021/12/08 09:20:54;;;;;;;10.03;7.60;;;;;;;4.37;100.00;96674.84;5108012;28;20263;-64
2021/12/08 09:23:25;;;;;;;10.80;7.53;;;;;;;4.37;100.00;96677.44;5103886;28;20214;-64
2021/12/08 09:25:55;;;;;;;9.37;7.60;;;;;;;4.39;100.00;96686.88;5105069;28;20220;-65
2021/12/08 09:28:28;;;;;;;10.23;7.67;;;;;;;4.40;100.00;96678.06;5103937;28;20214;-65
2021/12/08 09:31:02;;;;;;;10.40;7.43;;;;;;;4.41;100.00;96671.91;5111481;28;20581;-64
2021/12/08 09:33:37;;;;;;;9.43;8.20;;;;;;;4.45;100.00;96680.41;5111532;28;20234;-64
2021/12/08 09:36:07;;;;;;;9.07;8.00;;;;;;;4.44;100.00;96669.09;5110264;28;20723;-65
2021/12/08 09:38:38;;;;;;;11.43;8.10;;;;;;;4.46;100.00;96667.19;5111836;28;20607;-64
2021/12/08 09:41:07;;;;;;;11.50;8.10;;;;;;;4.44;100.00;96666.47;5100451;28;20212;-65
2021/12/08 09:43:37;;;;;;;10.67;8.00;;;;;;;4.48;100.00;96670.56;5104722;28;20215;-64
2021/12/08 09:46:09;;;;;;;10.60;7.93;;;;;;;4.51;100.00;96675.56;5103641;28;20214;-65
2021/12/08 09:48:38;;;;;;;8.80;7.90;;;;;;;4.55;100.00;96676.19;5111187;28;20212;-64
2021/12/08 09:51:05;;;;;;;10.37;8.03;;;;;;;4.57;100.00;96674.31;5111492;28;20211;-64
2021/12/08 09:53:34;;;;;;;11.00;7.60;;;;;;;4.58;100.00;96665.53;5108664;28;20234;-65
2021/12/08 09:56:02;;;;;;;9.13;7.63;;;;;;;4.61;100.00;96660.94;5111536;28;20219;-64
2021/12/08 09:58:28;;;;;;;11.93;8.00;;;;;;;4.62;100.00;96662.59;5111377;28;20220;-65
2021/12/08 10:00:59;;;;;;;8.10;6.93;;;;;;;4.64;100.00;96660.72;5111095;28;20237;-65
2021/12/08 10:03:27;;;;;;;10.07;7.60;;;;;;;4.68;100.00;96656.94;5105325;28;20212;-65
2021/12/08 10:05:55;;;;;;;7.97;6.93;;;;;;;4.68;100.00;96656.94;5102406;28;20571;-65
2021/12/08 10:08:22;;;;;;;8.23;7.27;;;;;;;4.75;100.00;96647.72;5103849;28;20215;-65
2021/12/08 10:10:49;;;;;;;8.37;7.27;;;;;;;4.78;100.00;96647.53;5109746;28;20217;-65
2021/12/08 10:13:17;;;;;;;10.93;7.50;;;;;;;4.81;100.00;96641.22;5108622;28;20237;-66
2021/12/08 10:15:45;;;;;;;8.60;7.60;;;;;;;4.83;100.00;96650.63;5101932;28;20218;-65
2021/12/08 10:18:12;;;;;;;9.23;7.07;;;;;;;4.87;100.00;96646.03;5103880;28;20212;-65
2021/12/08 10:20:44;;;;;;;9.43;7.73;;;;;;;4.87;100.00;96641.63;5105813;28;20217;-66
2021/12/08 10:23:14;;;;;;;10.97;8.03;;;;;;;4.90;100.00;96645.81;5108413;28;20209;-66
2021/12/08 10:25:44;;;;;;;8.50;7.10;;;;;;;4.86;100.00;96645.19;5101657;28;20303;-66
2021/12/08 10:28:13;;;;;;;10.63;8.10;;;;;;;4.86;100.00;96650.44;5104836;28;20222;-66
2021/12/08 10:30:45;;;;;;;12.20;7.70;;;;;;;4.78;100.00;96646.69;5105667;28;20211;-66
2021/12/08 10:34:01;;;;;;;8.73;7.33;;;;;;;4.79;100.00;96637.88;5101944;28;20235;-66
2021/12/08 10:36:45;;;;;;;13.73;8.27;;;;;;;4.79;100.00;96637.88;5090152;28;20214;-66
2021/12/08 10:39:25;;;;;;;10.63;7.67;;;;;;;4.81;100.00;96636.81;5101718;28;20260;-66
2021/12/08 10:41:59;;;;;;;10.47;8.27;;;;;;;4.77;100.00;96624.88;5103901;28;20216;-66
2021/12/08 10:44:28;;;;;;;11.20;8.50;;;;;;;4.77;100.00;96624.06;5105087;28;20680;-66
2021/12/08 10:46:57;;;;;;;10.93;8.10;;;;;;;4.76;100.00;96623.22;5102177;28;20211;-66
2021/12/08 10:54:24;;;;;;;11.47;8.20;;;;;;;4.74;100.00;96619.88;5101634;28;20645;-66
2021/12/08 10:55:00;;;;;;;11.47;8.53;;;;;;;4.79;100.00;96611.72;5101343;28;20579;-67
2021/12/08 10:57:31;;;;;;;11.87;9.00;;;;;;;4.83;100.00;96611.38;5103814;28;20209;-67
2021/12/08 11:00:01;;;;;;;11.03;8.17;;;;;;;4.81;100.00;96605.41;5105348;28;20214;-67
2021/12/08 11:02:40;;;;;;;12.17;8.57;;;;;;;4.84;100.00;96596.53;5110301;28;20718;-67
2021/12/08 11:05:28;;;;;;;11.73;9.18;;;;;;;4.89;100.00;96587.38;5109977;28;20508;-67
2021/12/08 11:08:00;;;;;;;9.97;8.10;;;;;;;4.88;100.00;96585.72;5094514;28;20275;-66
2021/12/08 11:10:28;;;;;;;8.90;7.73;;;;;;;4.89;100.00;96587.38;5103233;28;20204;-67
2021/12/08 11:12:55;;;;;;;13.43;8.77;;;;;;;4.93;100.00;96588.00;5097683;28;20240;-65
2021/12/08 11:15:23;;;;;;;8.77;7.60;;;;;;;4.92;100.00;96581.94;5092841;28;20288;-67
2021/12/08 11:18:20;;;;;;;9.40;7.57;;;;;;;4.95;100.00;96586.94;5111671;28;20215;-66
2021/12/08 11:20:51;;;;;;;8.53;7.07;;;;;;;5.00;100.00;96591.88;5110543;28;20208;-66
2021/12/08 11:23:38;;;;;;;10.40;7.53;;;;;;;5.02;100.00;96588.19;5104581;28;20220;-65
2021/12/08 11:26:12;;;;;;;9.70;7.90;;;;;;;5.07;100.00;96585.25;5097476;28;20743;-67
2021/12/08 11:28:40;;;;;;;10.07;8.17;;;;;;;5.09;100.00;96584.19;5107275;28;20211;-66
2021/12/08 11:31:11;;;;;;;9.13;7.90;;;;;;;5.09;100.00;96578.97;5098639;28;20756;-66
2021/12/08 11:33:42;;;;;;;8.50;6.97;;;;;;;5.10;100.00;96585.88;5098991;28;20239;-65
2021/12/08 11:36:13;;;;;;;11.30;7.90;;;;;;;5.10;100.00;96574.53;5107247;28;20301;-68
2021/12/08 11:38:41;;;;;;;8.33;7.13;;;;;;;5.14;100.00;96570.78;5113923;28;20220;-67
2021/12/08 11:41:34;;;;;;;9.77;7.77;;;;;;;5.16;100.00;96567.09;5113451;28;20221;-67
2021/12/08 11:44:02;;;;;;;8.73;7.27;;;;;;;5.17;100.00;96565.28;5114249;28;20402;-67
2021/12/08 11:46:33;;;;;;;9.90;7.40;;;;;;;5.16;100.00;96568.88;5114212;28;20242;-67
2021/12/08 11:49:05;;;;;;;7.83;7.03;;;;;;;5.12;100.00;96568.25;5113297;28;20215;-67
2021/12/08 11:51:35;;;;;;;8.17;7.00;;;;;;;5.13;100.00;96567.31;5114137;28;20225;-67
2021/12/08 11:54:03;;;;;;;9.23;6.87;;;;;;;5.14;100.00;96566.34;5114174;28;20248;-67
2021/12/08 11:56:36;;;;;;;7.53;6.43;;;;;;;5.17;100.00;96571.38;5110207;28;20207;-67
2021/12/08 11:59:04;;;;;;;7.53;6.57;;;;;;;5.19;100.00;96572.09;5106008;28;20218;-67
2021/12/08 12:01:31;;;;;;;8.47;7.17;;;;;;;5.24;100.00;96571.75;5112647;28;20624;-67
2021/12/08 12:03:58;;;;;;;9.40;7.03;;;;;;;5.29;100.00;96575.72;5112633;28;20686;-67
2021/12/08 12:06:28;;;;;;;8.70;6.77;;;;;;;5.30;100.00;96572.16;5102047;28;20232;-67
2021/12/08 12:08:56;;;;;;;8.00;6.87;;;;;;;5.31;100.00;96576.44;5105715;28;20354;-66
2021/12/08 12:11:26;;;;;;;8.43;6.90;;;;;;;5.27;100.00;96577.63;5111746;28;20597;-67
2021/12/08 12:13:54;;;;;;;8.37;7.47;;;;;;;5.32;100.00;96575.50;5111326;28;20269;-67
2021/12/08 12:16:21;;;;;;;9.67;6.80;;;;;;;5.34;100.00;96573.63;5100164;28;20576;-67